Time,TemperatureF,DewpointF,PressureIn,WindDirection,WindDirectionDegrees,WindSpeedMPH,WindSpeedGustMPH,Humidity,HourlyPrecipIn,Conditions,Clouds,dailyrainin,SoftwareType,DateUTC
2013-05-14 00:01:00,42.4,25.5,30.04,East,82,0.0,2.0,51,0.00,,,0.00,meteohub,2013-05-14 04:01:00,
2013-05-14 00:06:00,42.6,25.7,30.04,ESE,117,0.0,2.0,51,0.00,,,0.00,meteohub,2013-05-14 04:06:00,
2013-05-14 00:11:00,42.6,25.7,30.04,ESE,114,0.0,2.0,51,0.00,,,0.00,meteohub,2013-05-14 04:11:00,
2013-05-14 00:16:00,42.6,26.2,30.04,SE,134,0.0,2.0,52,0.00,,,0.00,meteohub,2013-05-14 04:16:00,
2013-05-14 00:21:00,42.4,26.1,30.04,ESE,120,0.0,2.0,52,0.00,,,0.00,meteohub,2013-05-14 04:21:00,
2013-05-14 00:26:00,42.4,26.6,30.04,South,182,0.0,2.0,53,0.00,,,0.00,meteohub,2013-05-14 04:26:00,
2013-05-14 00:31:00,42.6,26.2,30.04,ENE,60,0.0,2.0,52,0.00,,,0.00,meteohub,2013-05-14 04:31:00,
2013-05-14 00:36:00,42.6,26.2,30.03,South,169,0.0,2.0,52,0.00,,,0.00,meteohub,2013-05-14 04:36:00,
2013-05-14 00:41:00,42.8,26.4,30.04,SSE,147,1.0,2.0,52,0.00,,,0.00,meteohub,2013-05-14 04:41:00,
2013-05-14 00:46:00,43.0,26.1,30.03,NNW,330,1.0,2.0,51,0.00,,,0.00,meteohub,2013-05-14 04:46:00,
2013-05-14 00:51:00,43.0,26.1,30.03,SSW,197,0.0,5.0,51,0.00,,,0.00,meteohub,2013-05-14 04:51:00,
2013-05-14 00:56:00,43.0,26.1,30.03,SE,127,1.0,5.0,51,0.00,,,0.00,meteohub,2013-05-14 04:56:00,
2013-05-14 01:01:00,43.0,26.6,30.03,NE,49,0.0,3.0,52,0.00,,,0.00,meteohub,2013-05-14 05:01:00,
2013-05-14 01:06:00,43.2,26.2,30.02,SE,131,1.0,3.0,51,0.00,,,0.00,meteohub,2013-05-14 05:06:00,
2013-05-14 01:11:00,43.2,26.2,30.02,SE,145,3.0,3.0,51,0.00,,,0.00,meteohub,2013-05-14 05:11:00,
2013-05-14 01:16:00,43.2,26.8,30.02,SE,136,1.0,3.0,52,0.00,,,0.00,meteohub,2013-05-14 05:16:00,
2013-05-14 01:21:00,43.2,26.2,30.03,SSE,152,1.0,3.0,51,0.00,,,0.00,meteohub,2013-05-14 05:21:00,
2013-05-14 01:26:00,43.2,26.8,30.03,South,179,1.0,3.0,52,0.00,,,0.00,meteohub,2013-05-14 05:26:00,
2013-05-14 01:31:00,43.3,25.9,30.03,SSW,209,1.0,3.0,50,0.00,,,0.00,meteohub,2013-05-14 05:31:00,
2013-05-14 01:37:00,43.5,25.7,30.02,South,181,0.0,4.0,49,0.00,,,0.00,meteohub,2013-05-14 05:37:00,
2013-05-14 01:42:00,43.7,26.8,30.02,ESE,110,0.0,4.0,51,0.00,,,0.00,meteohub,2013-05-14 05:42:00,
2013-05-14 01:47:00,43.7,27.1,30.02,SSW,205,2.0,4.0,52,0.00,,,0.00,meteohub,2013-05-14 05:47:00,
2013-05-14 01:52:00,43.9,25.9,30.02,NNW,335,1.0,3.0,49,0.00,,,0.00,meteohub,2013-05-14 05:52:00,
2013-05-14 01:57:00,44.1,26.1,30.02,ESE,122,3.0,3.0,49,0.00,,,0.00,meteohub,2013-05-14 05:57:00,
2013-05-14 02:02:00,44.1,26.1,30.02,ESE,123,1.0,4.0,49,0.00,,,0.00,meteohub,2013-05-14 06:02:00,
2013-05-14 02:07:00,44.1,25.7,30.02,SSW,192,3.0,7.0,48,0.00,,,0.00,meteohub,2013-05-14 06:07:00,
2013-05-14 02:12:00,44.2,25.7,30.02,South,179,0.0,7.0,48,0.00,,,0.00,meteohub,2013-05-14 06:12:00,
2013-05-14 02:17:00,44.2,25.3,30.02,ESE,104,1.0,7.0,47,0.00,,,0.00,meteohub,2013-05-14 06:17:00,
2013-05-14 02:22:00,44.4,25.9,30.02,WSW,238,0.0,7.0,48,0.00,,,0.00,meteohub,2013-05-14 06:22:00,
2013-05-14 02:27:00,44.4,25.9,30.02,SE,131,0.0,4.0,48,0.00,,,0.00,meteohub,2013-05-14 06:27:00,
2013-05-14 02:32:00,44.2,26.8,30.02,SW,224,0.0,5.0,50,0.00,,,0.00,meteohub,2013-05-14 06:32:00,
2013-05-14 02:37:00,44.2,26.8,30.02,South,184,1.0,5.0,50,0.00,,,0.00,meteohub,2013-05-14 06:37:00,
2013-05-14 02:42:00,44.1,27.5,30.02,East,98,2.0,4.0,52,0.00,,,0.00,meteohub,2013-05-14 06:42:00,
2013-05-14 02:47:00,44.1,27.1,30.01,ESE,103,1.0,4.0,51,0.00,,,0.00,meteohub,2013-05-14 06:47:00,
2013-05-14 02:52:00,44.1,27.1,30.01,SSW,202,1.0,4.0,51,0.00,,,0.00,meteohub,2013-05-14 06:52:00,
2013-05-14 02:57:00,43.9,27.0,30.01,SSW,209,1.0,4.0,51,0.00,,,0.00,meteohub,2013-05-14 06:57:00,
2013-05-14 03:02:00,44.1,26.6,30.00,SE,142,2.0,4.0,50,0.00,,,0.00,meteohub,2013-05-14 07:02:00,
2013-05-14 03:07:00,44.1,26.1,29.99,SE,137,1.0,4.0,49,0.00,,,0.00,meteohub,2013-05-14 07:07:00,
2013-05-14 03:12:00,44.1,26.6,29.99,ESE,110,0.0,7.0,50,0.00,,,0.00,meteohub,2013-05-14 07:12:00,
2013-05-14 03:17:00,44.1,26.6,29.98,NNW,345,2.0,7.0,50,0.00,,,0.00,meteohub,2013-05-14 07:17:00,
2013-05-14 03:22:00,44.2,26.2,29.98,SSW,202,1.0,7.0,49,0.00,,,0.00,meteohub,2013-05-14 07:22:00,
2013-05-14 03:27:00,44.4,25.5,29.98,ESE,112,1.0,7.0,47,0.00,,,0.00,meteohub,2013-05-14 07:27:00,
2013-05-14 03:32:00,44.6,26.1,29.98,SE,126,0.0,6.0,48,0.00,,,0.00,meteohub,2013-05-14 07:32:00,
2013-05-14 03:37:00,44.6,25.7,29.97,ESE,106,1.0,4.0,47,0.00,,,0.00,meteohub,2013-05-14 07:37:00,
2013-05-14 03:42:00,44.8,26.2,29.98,ENE,77,0.0,3.0,48,0.00,,,0.00,meteohub,2013-05-14 07:42:00,
2013-05-14 03:47:00,44.6,26.6,29.98,SSE,152,3.0,3.0,49,0.00,,,0.00,meteohub,2013-05-14 07:47:00,
2013-05-14 03:52:00,44.4,27.5,29.98,ESE,112,1.0,3.0,51,0.00,,,0.00,meteohub,2013-05-14 07:52:00,
2013-05-14 03:57:00,44.4,28.8,29.96,South,181,1.0,3.0,54,0.00,,,0.00,meteohub,2013-05-14 07:57:00,
2013-05-14 04:02:00,44.2,30.0,29.96,SE,130,1.0,3.0,57,0.00,,,0.00,meteohub,2013-05-14 08:02:00,
2013-05-14 04:07:00,44.1,31.1,29.94,ESE,115,1.0,3.0,60,0.00,,,0.00,meteohub,2013-05-14 08:07:00,
2013-05-14 04:12:00,43.7,30.4,29.94,ENE,65,0.0,4.0,59,0.00,,,0.00,meteohub,2013-05-14 08:12:00,
2013-05-14 04:17:00,43.5,30.9,29.94,SSE,164,1.0,4.0,61,0.00,,,0.00,meteohub,2013-05-14 08:17:00,
2013-05-14 04:22:00,43.3,30.7,29.94,ESE,113,2.0,4.0,61,0.00,,,0.00,meteohub,2013-05-14 08:22:00,
2013-05-14 04:27:00,43.3,30.7,29.93,SE,143,2.0,3.0,61,0.00,,,0.00,meteohub,2013-05-14 08:27:00,
2013-05-14 04:32:00,43.3,30.7,29.94,South,183,1.0,3.0,61,0.00,,,0.00,meteohub,2013-05-14 08:32:00,
2013-05-14 04:37:00,43.3,30.7,29.94,ESE,103,0.0,4.0,61,0.00,,,0.00,meteohub,2013-05-14 08:37:00,
2013-05-14 04:42:00,43.3,30.7,29.94,ESE,117,2.0,4.0,61,0.00,,,0.00,meteohub,2013-05-14 08:42:00,
2013-05-14 04:47:00,43.3,32.0,29.93,East,91,1.0,4.0,64,0.00,,,0.00,meteohub,2013-05-14 08:47:00,
2013-05-14 04:52:00,43.3,32.7,29.92,ENE,67,3.0,3.0,66,0.00,,,0.00,meteohub,2013-05-14 08:52:00,
2013-05-14 04:57:00,43.2,32.5,29.91,SE,145,1.0,4.0,66,0.00,,,0.00,meteohub,2013-05-14 08:57:00,
2013-05-14 05:02:00,43.0,32.7,29.92,ESE,109,1.0,5.0,67,0.00,,,0.00,meteohub,2013-05-14 09:02:00,
2013-05-14 05:07:00,42.8,33.3,29.92,SE,146,0.0,7.0,69,0.00,,,0.00,meteohub,2013-05-14 09:07:00,
2013-05-14 05:12:00,42.8,32.9,29.93,ENE,74,1.0,7.0,68,0.00,,,0.00,meteohub,2013-05-14 09:12:00,
2013-05-14 05:17:00,42.8,33.6,29.93,East,99,0.0,7.0,70,0.00,,,0.00,meteohub,2013-05-14 09:17:00,
2013-05-14 05:22:00,42.8,34.3,29.94,NNW,339,1.0,3.0,72,0.00,,,0.00,meteohub,2013-05-14 09:22:00,
2013-05-14 05:27:00,42.4,34.3,29.93,ENE,58,1.0,3.0,73,0.00,,,0.00,meteohub,2013-05-14 09:27:00,
2013-05-14 05:32:00,42.4,34.0,29.94,North,358,1.0,3.0,72,0.00,,,0.00,meteohub,2013-05-14 09:32:00,
2013-05-14 05:37:00,42.6,33.8,29.94,East,91,2.0,3.0,71,0.00,,,0.00,meteohub,2013-05-14 09:37:00,
2013-05-14 05:42:00,42.8,34.0,29.94,SE,124,0.0,3.0,71,0.00,,,0.00,meteohub,2013-05-14 09:42:00,
2013-05-14 05:47:00,43.0,34.2,29.94,ESE,120,2.0,3.0,71,0.00,,,0.00,meteohub,2013-05-14 09:47:00,
2013-05-14 05:52:00,43.0,34.5,29.94,ESE,117,2.0,4.0,72,0.00,,,0.00,meteohub,2013-05-14 09:52:00,
2013-05-14 05:57:00,42.8,34.0,29.94,SSE,151,1.0,4.0,71,0.01,,,0.01,meteohub,2013-05-14 09:57:00,
2013-05-14 06:02:00,42.6,34.9,29.93,South,188,1.0,4.0,74,0.01,,,0.01,meteohub,2013-05-14 10:02:00,
2013-05-14 06:07:00,42.6,34.9,29.94,South,176,1.0,6.0,74,0.01,,,0.01,meteohub,2013-05-14 10:07:00,
2013-05-14 06:12:00,42.4,34.7,29.94,ENE,68,2.0,6.0,74,0.01,,,0.01,meteohub,2013-05-14 10:12:00,
2013-05-14 06:17:00,42.4,35.4,29.93,NE,43,0.0,6.0,76,0.01,,,0.01,meteohub,2013-05-14 10:17:00,
2013-05-14 06:22:00,42.3,35.6,29.92,SSW,193,1.0,4.0,77,0.01,,,0.01,meteohub,2013-05-14 10:22:00,
2013-05-14 06:27:00,42.3,35.2,29.93,ESE,112,0.0,3.0,76,0.01,,,0.01,meteohub,2013-05-14 10:27:00,
2013-05-14 06:32:00,42.1,35.4,29.92,East,95,0.0,3.0,77,0.01,,,0.01,meteohub,2013-05-14 10:32:00,
2013-05-14 06:37:00,42.1,35.8,29.92,SW,216,0.0,3.0,78,0.01,,,0.01,meteohub,2013-05-14 10:37:00,
2013-05-14 06:42:00,42.1,35.4,29.92,SSW,192,0.0,3.0,77,0.02,,,0.02,meteohub,2013-05-14 10:42:00,
2013-05-14 06:47:00,42.1,35.4,29.92,ESE,122,1.0,4.0,77,0.02,,,0.02,meteohub,2013-05-14 10:47:00,
2013-05-14 06:52:00,42.1,35.8,29.92,South,179,1.0,5.0,78,0.01,,,0.02,meteohub,2013-05-14 10:52:00,
2013-05-14 06:57:00,42.1,35.4,29.92,NE,41,1.0,5.0,77,0.01,,,0.02,meteohub,2013-05-14 10:57:00,
2013-05-14 07:02:00,42.1,35.8,29.92,NE,34,0.0,5.0,78,0.01,,,0.02,meteohub,2013-05-14 11:02:00,
2013-05-14 07:07:00,42.1,35.8,29.92,West,268,1.0,5.0,78,0.01,,,0.02,meteohub,2013-05-14 11:07:00,
2013-05-14 07:12:00,42.3,36.0,29.91,SE,133,2.0,5.0,78,0.01,,,0.02,meteohub,2013-05-14 11:12:00,
2013-05-14 07:17:00,42.3,35.6,29.92,SE,141,1.0,6.0,77,0.01,,,0.02,meteohub,2013-05-14 11:17:00,
2013-05-14 07:22:00,42.4,35.4,29.91,East,99,1.0,6.0,76,0.01,,,0.02,meteohub,2013-05-14 11:22:00,
2013-05-14 07:27:00,42.4,35.4,29.91,East,82,4.0,6.0,76,0.01,,,0.02,meteohub,2013-05-14 11:27:00,
2013-05-14 07:32:00,42.6,35.2,29.91,ENE,60,1.0,8.0,75,0.01,,,0.02,meteohub,2013-05-14 11:32:00,
2013-05-14 07:37:00,42.6,35.2,29.91,NE,43,2.0,9.0,75,0.00,,,0.02,meteohub,2013-05-14 11:37:00,
2013-05-14 07:42:00,42.8,34.7,29.90,SSW,192,4.0,9.0,73,0.00,,,0.02,meteohub,2013-05-14 11:42:00,
2013-05-14 07:47:00,43.0,35.2,29.90,SSW,202,2.0,10.0,74,0.00,,,0.02,meteohub,2013-05-14 11:47:00,
2013-05-14 07:52:00,43.0,35.2,29.89,SSE,165,1.0,12.0,74,0.00,,,0.02,meteohub,2013-05-14 11:52:00,
2013-05-14 07:57:00,43.2,34.7,29.89,East,92,1.0,12.0,72,0.00,,,0.02,meteohub,2013-05-14 11:57:00,
2013-05-14 08:02:00,43.5,34.7,29.89,SSE,166,5.0,12.0,71,0.00,,,0.02,meteohub,2013-05-14 12:02:00,
2013-05-14 08:07:00,43.9,35.1,29.89,SE,127,3.0,8.0,71,0.00,,,0.02,meteohub,2013-05-14 12:07:00,
2013-05-14 08:12:00,44.1,35.2,29.88,South,181,4.0,8.0,71,0.00,,,0.02,meteohub,2013-05-14 12:12:00,
2013-05-14 08:17:00,44.6,35.4,29.88,SSE,162,2.0,9.0,70,0.00,,,0.02,meteohub,2013-05-14 12:17:00,
2013-05-14 08:22:00,45.3,35.8,29.86,SSW,212,2.0,12.0,69,0.00,,,0.02,meteohub,2013-05-14 12:22:00,
2013-05-14 08:27:00,46.0,35.8,29.86,South,178,6.0,12.0,67,0.00,,,0.02,meteohub,2013-05-14 12:27:00,
2013-05-14 08:32:00,46.8,35.2,29.86,ENE,74,4.0,12.0,64,0.00,,,0.02,meteohub,2013-05-14 12:32:00,
2013-05-14 08:37:00,47.3,35.4,29.86,SE,133,2.0,9.0,63,0.00,,,0.02,meteohub,2013-05-14 12:37:00,
2013-05-14 08:42:00,47.7,34.5,29.85,SSW,197,4.0,9.0,60,0.00,,,0.02,meteohub,2013-05-14 12:42:00,
2013-05-14 08:47:00,47.7,34.5,29.86,North,7,4.0,9.0,60,0.00,,,0.02,meteohub,2013-05-14 12:47:00,
2013-05-14 08:52:00,47.8,33.8,29.86,SSW,209,2.0,8.0,58,0.00,,,0.02,meteohub,2013-05-14 12:52:00,
2013-05-14 08:57:00,48.2,34.5,29.85,ESE,117,6.0,13.0,59,0.00,,,0.02,meteohub,2013-05-14 12:57:00,
2013-05-14 09:02:00,48.7,34.2,29.84,SSE,150,5.0,13.0,57,0.00,,,0.02,meteohub,2013-05-14 13:02:00,
2013-05-14 09:07:00,49.3,34.2,29.84,ESE,106,4.0,10.0,56,0.00,,,0.02,meteohub,2013-05-14 13:07:00,
2013-05-14 09:12:00,49.8,34.3,29.84,ESE,123,7.0,12.0,55,0.00,,,0.02,meteohub,2013-05-14 13:12:00,
2013-05-14 09:17:00,50.5,34.0,29.83,SW,217,3.0,12.0,53,0.00,,,0.02,meteohub,2013-05-14 13:17:00,
2013-05-14 09:22:00,51.1,34.5,29.83,SW,226,6.0,12.0,53,0.00,,,0.02,meteohub,2013-05-14 13:22:00,
2013-05-14 09:28:00,51.6,34.2,29.83,ENE,77,10.0,16.0,51,0.00,,,0.02,meteohub,2013-05-14 13:28:00,
2013-05-14 09:33:00,52.2,35.1,29.82,East,85,5.0,16.0,52,0.00,,,0.02,meteohub,2013-05-14 13:33:00,
2013-05-14 09:38:00,52.7,35.6,29.82,SSW,202,3.0,16.0,52,0.00,,,0.02,meteohub,2013-05-14 13:38:00,
2013-05-14 09:43:00,53.1,34.9,29.82,ESE,117,1.0,11.0,50,0.00,,,0.02,meteohub,2013-05-14 13:43:00,
2013-05-14 09:48:00,53.6,35.4,29.82,ESE,112,9.0,11.0,50,0.00,,,0.02,meteohub,2013-05-14 13:48:00,
2013-05-14 09:53:00,54.1,34.3,29.82,WSW,244,7.0,11.0,47,0.00,,,0.02,meteohub,2013-05-14 13:53:00,
2013-05-14 09:58:00,54.7,34.9,29.82,ESE,117,13.0,13.0,47,0.00,,,0.02,meteohub,2013-05-14 13:58:00,
2013-05-14 10:03:00,55.0,35.2,29.82,SW,224,3.0,15.0,47,0.00,,,0.02,meteohub,2013-05-14 14:03:00,
2013-05-14 10:08:00,55.4,34.9,29.82,South,182,8.0,15.0,46,0.00,,,0.02,meteohub,2013-05-14 14:08:00,
2013-05-14 10:13:00,55.8,35.8,29.81,SSE,157,8.0,18.0,47,0.00,,,0.02,meteohub,2013-05-14 14:13:00,
2013-05-14 10:18:00,55.8,35.2,29.81,SSE,164,2.0,18.0,46,0.00,,,0.02,meteohub,2013-05-14 14:18:00,
2013-05-14 10:23:00,56.3,36.3,29.81,ENE,74,10.0,18.0,47,0.00,,,0.02,meteohub,2013-05-14 14:23:00,
2013-05-14 10:28:00,56.7,36.1,29.81,East,84,4.0,15.0,46,0.00,,,0.02,meteohub,2013-05-14 14:28:00,
2013-05-14 10:33:00,56.8,36.3,29.80,NW,326,2.0,15.0,46,0.00,,,0.02,meteohub,2013-05-14 14:33:00,
2013-05-14 10:38:00,57.2,36.0,29.80,ENE,67,4.0,15.0,45,0.00,,,0.02,meteohub,2013-05-14 14:38:00,
2013-05-14 10:43:00,57.7,36.5,29.80,ENE,60,8.0,15.0,45,0.00,,,0.02,meteohub,2013-05-14 14:43:00,
2013-05-14 10:48:00,57.6,36.3,29.80,ESE,102,7.0,15.0,45,0.00,,,0.02,meteohub,2013-05-14 14:48:00,
2013-05-14 10:53:00,57.6,36.3,29.79,South,181,10.0,15.0,45,0.00,,,0.02,meteohub,2013-05-14 14:53:00,
2013-05-14 10:58:00,57.7,36.0,29.78,East,89,14.0,15.0,44,0.00,,,0.02,meteohub,2013-05-14 14:58:00,
2013-05-14 11:03:00,58.1,37.4,29.79,SSE,148,6.0,15.0,46,0.00,,,0.02,meteohub,2013-05-14 15:03:00,
2013-05-14 11:08:00,58.6,37.4,29.80,South,177,8.0,15.0,45,0.00,,,0.02,meteohub,2013-05-14 15:08:00,
2013-05-14 11:13:00,59.2,37.9,29.80,SSW,199,2.0,15.0,45,0.00,,,0.02,meteohub,2013-05-14 15:13:00,
2013-05-14 11:18:00,59.9,38.5,29.79,East,88,4.0,12.0,45,0.00,,,0.02,meteohub,2013-05-14 15:18:00,
2013-05-14 11:23:00,60.6,39.2,29.79,North,7,3.0,11.0,45,0.00,,,0.02,meteohub,2013-05-14 15:23:00,
2013-05-14 11:28:00,61.0,37.8,29.79,NE,34,6.0,12.0,42,0.00,,,0.02,meteohub,2013-05-14 15:28:00,
2013-05-14 11:33:00,61.0,37.8,29.79,South,178,3.0,14.0,42,0.00,,,0.02,meteohub,2013-05-14 15:33:00,
2013-05-14 11:38:00,61.3,38.1,29.80,South,174,3.0,14.0,42,0.00,,,0.02,meteohub,2013-05-14 15:38:00,
2013-05-14 11:43:00,61.9,39.2,29.80,SSW,199,4.0,14.0,43,0.00,,,0.02,meteohub,2013-05-14 15:43:00,
2013-05-14 11:48:00,62.2,38.3,29.81,ENE,72,3.0,11.0,41,0.00,,,0.02,meteohub,2013-05-14 15:48:00,
2013-05-14 11:53:00,62.4,39.6,29.81,NE,46,2.0,15.0,43,0.00,,,0.02,meteohub,2013-05-14 15:53:00,
2013-05-14 11:58:00,62.6,37.9,29.81,South,188,4.0,15.0,40,0.00,,,0.02,meteohub,2013-05-14 15:58:00,
2013-05-14 12:03:00,63.0,38.8,29.81,WNW,287,3.0,15.0,41,0.00,,,0.02,meteohub,2013-05-14 16:03:00,
2013-05-14 12:08:00,63.0,40.1,29.81,West,265,1.0,10.0,43,0.00,,,0.02,meteohub,2013-05-14 16:08:00,
2013-05-14 12:13:00,63.5,40.6,29.81,NNE,26,1.0,10.0,43,0.00,,,0.02,meteohub,2013-05-14 16:13:00,
2013-05-14 12:18:00,63.9,39.7,29.81,ENE,73,3.0,8.0,41,0.00,,,0.02,meteohub,2013-05-14 16:18:00,
2013-05-14 12:23:00,63.7,40.8,29.81,SE,144,4.0,10.0,43,0.00,,,0.02,meteohub,2013-05-14 16:23:00,
2013-05-14 12:28:00,63.9,38.5,29.81,East,91,2.0,10.0,39,0.00,,,0.02,meteohub,2013-05-14 16:28:00,
2013-05-14 12:33:00,63.5,39.9,29.80,WSW,242,3.0,10.0,42,0.00,,,0.02,meteohub,2013-05-14 16:33:00,
2013-05-14 12:38:00,63.9,39.7,29.80,SSW,207,2.0,13.0,41,0.00,,,0.02,meteohub,2013-05-14 16:38:00,
2013-05-14 12:43:00,64.6,39.7,29.81,SSW,207,1.0,13.0,40,0.00,,,0.02,meteohub,2013-05-14 16:43:00,
2013-05-14 12:48:00,64.9,40.1,29.80,SE,142,4.0,13.0,40,0.00,,,0.02,meteohub,2013-05-14 16:48:00,
2013-05-14 12:54:00,65.7,41.4,29.80,WSW,254,4.0,4.0,41,0.00,,,0.02,meteohub,2013-05-14 16:54:00,
2013-05-14 12:59:00,66.0,42.3,29.80,ESE,108,6.0,6.0,42,0.00,,,0.02,meteohub,2013-05-14 16:59:00,
2013-05-14 13:04:00,65.7,40.6,29.80,ENE,77,2.0,7.0,40,0.00,,,0.02,meteohub,2013-05-14 17:04:00,
2013-05-14 13:09:00,65.8,41.5,29.80,NNE,12,1.0,7.0,41,0.00,,,0.02,meteohub,2013-05-14 17:09:00,
2013-05-14 13:14:00,66.2,41.7,29.79,SSE,157,4.0,8.0,41,0.00,,,0.02,meteohub,2013-05-14 17:14:00,
2013-05-14 13:19:00,66.7,41.0,29.79,SSE,157,1.0,8.0,39,0.00,,,0.02,meteohub,2013-05-14 17:19:00,
2013-05-14 13:24:00,66.9,40.5,29.79,NE,53,5.0,8.0,38,0.00,,,0.02,meteohub,2013-05-14 17:24:00,
2013-05-14 13:29:00,66.4,41.9,29.80,South,185,5.0,9.0,41,0.00,,,0.02,meteohub,2013-05-14 17:29:00,
2013-05-14 13:34:00,66.0,41.7,29.80,SW,226,1.0,11.0,41,0.00,,,0.02,meteohub,2013-05-14 17:34:00,
2013-05-14 13:39:00,65.7,39.4,29.79,NNE,32,2.0,11.0,38,0.00,,,0.02,meteohub,2013-05-14 17:39:00,
2013-05-14 13:44:00,65.7,40.6,29.79,ESE,116,3.0,11.0,40,0.00,,,0.02,meteohub,2013-05-14 17:44:00,
2013-05-14 13:49:00,65.8,41.5,29.79,ESE,123,3.0,7.0,41,0.00,,,0.02,meteohub,2013-05-14 17:49:00,
2013-05-14 13:54:00,65.7,40.6,29.78,SE,144,1.0,7.0,40,0.00,,,0.02,meteohub,2013-05-14 17:54:00,
2013-05-14 13:59:00,66.4,41.9,29.78,NNE,12,2.0,7.0,41,0.00,,,0.02,meteohub,2013-05-14 17:59:00,
2013-05-14 14:04:00,66.6,42.1,29.78,SW,216,1.0,6.0,41,0.00,,,0.02,meteohub,2013-05-14 18:04:00,
2013-05-14 14:09:00,66.4,41.4,29.78,West,276,1.0,7.0,40,0.00,,,0.02,meteohub,2013-05-14 18:09:00,
2013-05-14 14:14:00,66.4,41.9,29.78,SE,124,3.0,7.0,41,0.00,,,0.02,meteohub,2013-05-14 18:14:00,
2013-05-14 14:19:00,66.7,42.3,29.79,East,98,1.0,7.0,41,0.00,,,0.02,meteohub,2013-05-14 18:19:00,
2013-05-14 14:24:00,66.7,41.7,29.79,NE,51,1.0,6.0,40,0.00,,,0.02,meteohub,2013-05-14 18:24:00,
2013-05-14 14:29:00,66.7,41.7,29.79,SSE,161,4.0,8.0,40,0.00,,,0.02,meteohub,2013-05-14 18:29:00,
2013-05-14 14:34:00,67.3,42.8,29.79,NNE,26,4.0,8.0,41,0.00,,,0.02,meteohub,2013-05-14 18:34:00,
2013-05-14 14:39:00,67.3,42.8,29.79,South,183,1.0,8.0,41,0.00,,,0.02,meteohub,2013-05-14 18:39:00,
2013-05-14 14:44:00,67.5,42.3,29.78,SE,124,2.0,7.0,40,0.00,,,0.02,meteohub,2013-05-14 18:44:00,
2013-05-14 14:49:00,67.8,41.4,29.78,ENE,75,1.0,7.0,38,0.00,,,0.02,meteohub,2013-05-14 18:49:00,
2013-05-14 14:54:00,67.8,41.9,29.78,South,182,1.0,5.0,39,0.00,,,0.02,meteohub,2013-05-14 18:54:00,
2013-05-14 14:59:00,67.8,43.3,29.78,SSE,165,1.0,3.0,41,0.00,,,0.02,meteohub,2013-05-14 18:59:00,
2013-05-14 15:04:00,67.8,42.6,29.78,SW,233,0.0,7.0,40,0.00,,,0.02,meteohub,2013-05-14 19:04:00,
2013-05-14 15:09:00,68.0,42.1,29.78,ESE,116,3.0,7.0,39,0.00,,,0.02,meteohub,2013-05-14 19:09:00,
2013-05-14 15:14:00,67.8,43.3,29.78,ESE,110,2.0,7.0,41,0.00,,,0.02,meteohub,2013-05-14 19:14:00,
2013-05-14 15:19:00,68.4,42.4,29.77,East,98,2.0,7.0,39,0.00,,,0.02,meteohub,2013-05-14 19:19:00,
2013-05-14 15:25:00,68.7,44.8,29.77,SE,136,1.0,7.0,42,0.00,,,0.02,meteohub,2013-05-14 19:25:00,
2013-05-14 15:30:00,69.3,43.9,29.77,SSW,207,1.0,7.0,40,0.00,,,0.02,meteohub,2013-05-14 19:30:00,
2013-05-14 15:35:00,68.9,41.5,29.77,South,179,0.0,7.0,37,0.00,,,0.02,meteohub,2013-05-14 19:35:00,
2013-05-14 15:40:00,69.4,42.8,29.77,NE,43,1.0,7.0,38,0.00,,,0.02,meteohub,2013-05-14 19:40:00,
2013-05-14 15:45:00,68.0,41.4,29.77,North,358,4.0,8.0,38,0.00,,,0.02,meteohub,2013-05-14 19:45:00,
2013-05-14 15:50:00,68.5,42.6,29.77,SSW,205,3.0,8.0,39,0.00,,,0.02,meteohub,2013-05-14 19:50:00,
2013-05-14 15:55:00,69.1,43.2,29.76,SSW,200,2.0,8.0,39,0.00,,,0.02,meteohub,2013-05-14 19:55:00,
2013-05-14 16:00:00,70.0,43.9,29.77,SSW,196,3.0,6.0,39,0.00,,,0.02,meteohub,2013-05-14 20:00:00,
2013-05-14 16:05:00,70.2,42.6,29.77,SW,217,1.0,5.0,37,0.00,,,0.02,meteohub,2013-05-14 20:05:00,
2013-05-14 16:10:00,70.3,44.2,29.77,NNE,29,2.0,5.0,39,0.00,,,0.02,meteohub,2013-05-14 20:10:00,
2013-05-14 16:15:00,69.4,42.1,29.77,North,358,0.0,5.0,37,0.00,,,0.02,meteohub,2013-05-14 20:15:00,
2013-05-14 16:20:00,70.2,44.1,29.77,SSE,155,3.0,4.0,39,0.00,,,0.02,meteohub,2013-05-14 20:20:00,
2013-05-14 16:25:00,70.7,42.4,29.77,SW,214,1.0,4.0,36,0.00,,,0.02,meteohub,2013-05-14 20:25:00,
2013-05-14 16:30:00,70.5,43.0,29.77,SSE,162,0.0,6.0,37,0.00,,,0.02,meteohub,2013-05-14 20:30:00,
2013-05-14 16:35:00,70.5,43.7,29.77,NNE,14,1.0,4.0,38,0.00,,,0.02,meteohub,2013-05-14 20:35:00,
2013-05-14 16:40:00,71.1,44.2,29.76,NNE,31,1.0,3.0,38,0.00,,,0.02,meteohub,2013-05-14 20:40:00,
2013-05-14 16:45:00,70.9,42.6,29.75,SW,234,1.0,6.0,36,0.00,,,0.02,meteohub,2013-05-14 20:45:00,
2013-05-14 16:50:00,70.9,43.3,29.75,WSW,248,1.0,6.0,37,0.00,,,0.02,meteohub,2013-05-14 20:50:00,
2013-05-14 16:55:00,70.3,45.0,29.75,South,181,2.0,6.0,40,0.00,,,0.02,meteohub,2013-05-14 20:55:00,
2013-05-14 17:00:00,70.3,42.8,29.75,NNE,27,1.0,4.0,37,0.00,,,0.02,meteohub,2013-05-14 21:00:00,
2013-05-14 17:05:00,70.3,44.2,29.74,SE,144,0.0,3.0,39,0.00,,,0.02,meteohub,2013-05-14 21:05:00,
2013-05-14 17:10:00,70.5,43.7,29.74,ESE,109,0.0,3.0,38,0.00,,,0.02,meteohub,2013-05-14 21:10:00,
2013-05-14 17:15:00,70.5,43.7,29.74,SW,216,4.0,4.0,38,0.00,,,0.02,meteohub,2013-05-14 21:15:00,
2013-05-14 17:20:00,70.3,44.2,29.74,South,181,2.0,5.0,39,0.00,,,0.02,meteohub,2013-05-14 21:20:00,
2013-05-14 17:25:00,70.2,44.1,29.74,SE,126,4.0,5.0,39,0.00,,,0.02,meteohub,2013-05-14 21:25:00,
2013-05-14 17:30:00,69.6,43.5,29.73,East,92,2.0,7.0,39,0.00,,,0.02,meteohub,2013-05-14 21:30:00,
2013-05-14 17:35:00,69.6,44.2,29.73,NNE,31,2.0,10.0,40,0.00,,,0.02,meteohub,2013-05-14 21:35:00,
2013-05-14 17:40:00,70.2,44.8,29.73,SE,138,2.0,10.0,40,0.00,,,0.02,meteohub,2013-05-14 21:40:00,
2013-05-14 17:45:00,70.9,44.8,29.73,ESE,112,1.0,10.0,39,0.00,,,0.02,meteohub,2013-05-14 21:45:00,
2013-05-14 17:50:00,71.2,43.0,29.72,West,263,1.0,10.0,36,0.00,,,0.02,meteohub,2013-05-14 21:50:00,
2013-05-14 17:55:00,71.6,45.3,29.72,NNE,15,1.0,10.0,39,0.00,,,0.02,meteohub,2013-05-14 21:55:00,
2013-05-14 18:00:00,72.0,45.0,29.72,SE,126,1.0,6.0,38,0.00,,,0.02,meteohub,2013-05-14 22:00:00,
2013-05-14 18:05:00,72.3,44.6,29.71,SSE,148,4.0,5.0,37,0.00,,,0.02,meteohub,2013-05-14 22:05:00,
2013-05-14 18:10:00,72.3,44.6,29.71,ENE,60,4.0,5.0,37,0.00,,,0.02,meteohub,2013-05-14 22:10:00,
2013-05-14 18:15:00,72.1,45.1,29.72,West,264,1.0,7.0,38,0.00,,,0.02,meteohub,2013-05-14 22:15:00,
2013-05-14 18:20:00,72.3,43.9,29.72,NE,50,2.0,7.0,36,0.00,,,0.02,meteohub,2013-05-14 22:20:00,
2013-05-14 18:26:00,72.1,45.1,29.70,SSW,192,1.0,7.0,38,0.00,,,0.02,meteohub,2013-05-14 22:26:00,
2013-05-14 18:31:00,71.8,44.8,29.70,NNE,20,1.0,7.0,38,0.00,,,0.02,meteohub,2013-05-14 22:31:00,
2013-05-14 18:36:00,71.2,44.2,29.70,East,86,3.0,7.0,38,0.00,,,0.02,meteohub,2013-05-14 22:36:00,
2013-05-14 18:41:00,70.9,44.1,29.70,SE,144,1.0,5.0,38,0.00,,,0.02,meteohub,2013-05-14 22:41:00,
2013-05-14 18:46:00,70.7,44.6,29.69,South,184,5.0,5.0,39,0.00,,,0.02,meteohub,2013-05-14 22:46:00,
2013-05-14 18:51:00,70.7,44.6,29.69,South,176,3.0,7.0,39,0.00,,,0.02,meteohub,2013-05-14 22:51:00,
2013-05-14 18:56:00,70.5,44.4,29.69,SE,134,3.0,8.0,39,0.00,,,0.02,meteohub,2013-05-14 22:56:00,
2013-05-14 19:01:00,69.6,44.2,29.69,NE,48,2.0,8.0,40,0.00,,,0.02,meteohub,2013-05-14 23:01:00,
2013-05-14 19:06:00,69.1,44.4,29.69,SSW,212,1.0,8.0,41,0.00,,,0.02,meteohub,2013-05-14 23:06:00,
2013-05-14 19:11:00,69.1,44.4,29.68,ENE,74,5.0,6.0,41,0.00,,,0.02,meteohub,2013-05-14 23:11:00,
2013-05-14 19:16:00,68.9,44.8,29.69,ENE,62,1.0,5.0,42,0.00,,,0.02,meteohub,2013-05-14 23:16:00,
2013-05-14 19:21:00,68.9,45.5,29.68,SSE,161,2.0,5.0,43,0.00,,,0.02,meteohub,2013-05-14 23:21:00,
2013-05-14 19:26:00,68.7,44.8,29.68,SSW,196,4.0,5.0,42,0.00,,,0.02,meteohub,2013-05-14 23:26:00,
2013-05-14 19:31:00,68.4,44.4,29.68,ESE,107,3.0,6.0,42,0.00,,,0.02,meteohub,2013-05-14 23:31:00,
2013-05-14 19:36:00,68.2,44.8,29.68,ESE,109,0.0,7.0,43,0.00,,,0.02,meteohub,2013-05-14 23:36:00,
2013-05-14 19:41:00,67.8,45.1,29.68,ESE,109,1.0,7.0,44,0.00,,,0.02,meteohub,2013-05-14 23:41:00,
2013-05-14 19:46:00,67.5,44.8,29.67,South,181,2.0,5.0,44,0.00,,,0.02,meteohub,2013-05-14 23:46:00,
2013-05-14 19:51:00,67.3,44.6,29.67,SE,132,2.0,6.0,44,0.00,,,0.02,meteohub,2013-05-14 23:51:00,
2013-05-14 19:56:00,67.1,45.0,29.67,South,184,1.0,6.0,45,0.00,,,0.02,meteohub,2013-05-14 23:56:00,
2013-05-14 20:01:00,67.1,45.0,29.67,East,99,1.0,6.0,45,0.00,,,0.02,meteohub,2013-05-15 00:01:00,
2013-05-14 20:06:00,66.7,45.3,29.66,ESE,116,2.0,6.0,46,0.00,,,0.00,meteohub,2013-05-15 00:06:00,
2013-05-14 20:11:00,66.4,45.0,29.66,ENE,72,1.0,5.0,46,0.00,,,0.00,meteohub,2013-05-15 00:11:00,
2013-05-14 20:16:00,65.8,45.0,29.66,ENE,70,0.0,5.0,47,0.00,,,0.00,meteohub,2013-05-15 00:16:00,
2013-05-14 20:21:00,65.5,44.8,29.66,SSE,158,0.0,4.0,47,0.00,,,0.00,meteohub,2013-05-15 00:21:00,
2013-05-14 20:26:00,65.1,45.0,29.65,SSE,157,0.0,3.0,48,0.00,,,0.00,meteohub,2013-05-15 00:26:00,
2013-05-14 20:31:00,64.8,45.7,29.65,ENE,70,2.0,4.0,50,0.00,,,0.00,meteohub,2013-05-15 00:31:00,
2013-05-14 20:36:00,64.6,45.0,29.65,NE,34,2.0,4.0,49,0.00,,,0.00,meteohub,2013-05-15 00:36:00,
2013-05-14 20:41:00,64.4,45.3,29.65,ESE,120,0.0,3.0,50,0.00,,,0.00,meteohub,2013-05-15 00:41:00,
2013-05-14 20:46:00,64.2,45.1,29.65,SSE,164,0.0,3.0,50,0.00,,,0.00,meteohub,2013-05-15 00:46:00,
2013-05-14 20:51:00,64.0,45.5,29.64,SE,144,1.0,3.0,51,0.00,,,0.00,meteohub,2013-05-15 00:51:00,
2013-05-14 20:56:00,63.7,45.7,29.64,SSE,154,0.0,2.0,52,0.00,,,0.00,meteohub,2013-05-15 00:56:00,
2013-05-14 21:01:00,63.5,45.5,29.64,SE,133,1.0,2.0,52,0.00,,,0.00,meteohub,2013-05-15 01:01:00,
2013-05-14 21:06:00,63.3,45.0,29.64,ESE,113,2.0,2.0,51,0.00,,,0.00,meteohub,2013-05-15 01:06:00,
2013-05-14 21:12:00,63.1,45.1,29.64,East,89,1.0,4.0,52,0.00,,,0.00,meteohub,2013-05-15 01:12:00,
2013-05-14 21:17:00,63.1,44.8,29.64,West,270,2.0,4.0,51,0.00,,,0.00,meteohub,2013-05-15 01:17:00,
2013-05-14 21:22:00,63.0,45.1,29.64,SSE,155,1.0,3.0,52,0.00,,,0.00,meteohub,2013-05-15 01:22:00,
2013-05-14 21:27:00,62.8,45.0,29.64,ESE,105,2.0,3.0,52,0.00,,,0.00,meteohub,2013-05-15 01:27:00,
2013-05-14 21:32:00,62.6,44.8,29.64,ENE,65,2.0,3.0,52,0.00,,,0.00,meteohub,2013-05-15 01:32:00,
2013-05-14 21:37:00,62.4,44.6,29.63,SSE,151,3.0,5.0,52,0.00,,,0.00,meteohub,2013-05-15 01:37:00,
2013-05-14 21:42:00,62.2,44.4,29.64,ESE,120,1.0,8.0,52,0.00,,,0.00,meteohub,2013-05-15 01:42:00,
2013-05-14 21:47:00,62.2,44.4,29.64,ESE,106,3.0,8.0,52,0.00,,,0.00,meteohub,2013-05-15 01:47:00,
2013-05-14 21:52:00,62.1,44.8,29.64,West,263,2.0,8.0,53,0.00,,,0.00,meteohub,2013-05-15 01:52:00,
2013-05-14 21:57:00,62.1,44.8,29.64,SE,145,1.0,8.0,53,0.00,,,0.00,meteohub,2013-05-15 01:57:00,
2013-05-14 22:02:00,61.9,45.1,29.64,SSW,213,2.0,6.0,54,0.00,,,0.00,meteohub,2013-05-15 02:02:00,
2013-05-14 22:07:00,61.7,45.0,29.64,East,82,3.0,6.0,54,0.00,,,0.00,meteohub,2013-05-15 02:07:00,
2013-05-14 22:12:00,61.5,44.8,29.65,ENE,58,2.0,9.0,54,0.00,,,0.00,meteohub,2013-05-15 02:12:00,
2013-05-14 22:17:00,61.2,44.8,29.65,NE,37,2.0,9.0,55,0.00,,,0.00,meteohub,2013-05-15 02:17:00,
2013-05-14 22:22:00,61.0,45.1,29.65,NE,49,1.0,7.0,56,0.00,,,0.00,meteohub,2013-05-15 02:22:00,
2013-05-14 22:27:00,60.6,45.3,29.65,WSW,242,0.0,6.0,57,0.00,,,0.00,meteohub,2013-05-15 02:27:00,
2013-05-14 22:32:00,60.4,45.1,29.65,SSW,200,3.0,6.0,57,0.00,,,0.00,meteohub,2013-05-15 02:32:00,
2013-05-14 22:37:00,60.4,45.1,29.65,SE,129,6.0,8.0,57,0.00,,,0.00,meteohub,2013-05-15 02:37:00,
2013-05-14 22:42:00,60.3,45.5,29.65,South,176,2.0,8.0,58,0.00,,,0.00,meteohub,2013-05-15 02:42:00,
2013-05-14 22:47:00,60.1,45.3,29.65,SSW,209,4.0,6.0,58,0.00,,,0.00,meteohub,2013-05-15 02:47:00,
2013-05-14 22:52:00,59.9,45.5,29.65,WNW,295,1.0,10.0,59,0.00,,,0.00,meteohub,2013-05-15 02:52:00,
2013-05-14 22:57:00,59.7,45.3,29.65,SE,138,4.0,10.0,59,0.00,,,0.00,meteohub,2013-05-15 02:57:00,
2013-05-14 23:02:00,59.4,45.0,29.64,South,179,9.0,13.0,59,0.00,,,0.00,meteohub,2013-05-15 03:02:00,
2013-05-14 23:07:00,59.2,45.3,29.64,ESE,122,1.0,13.0,60,0.00,,,0.00,meteohub,2013-05-15 03:07:00,
2013-05-14 23:12:00,58.6,44.8,29.63,NE,41,6.0,13.0,60,0.00,,,0.00,meteohub,2013-05-15 03:12:00,
2013-05-14 23:17:00,58.3,45.0,29.63,SSW,195,2.0,13.0,61,0.00,,,0.00,meteohub,2013-05-15 03:17:00,
2013-05-14 23:22:00,57.9,45.0,29.63,SSW,202,5.0,13.0,62,0.00,,,0.00,meteohub,2013-05-15 03:22:00,
2013-05-14 23:27:00,57.7,44.8,29.62,WSW,241,3.0,13.0,62,0.00,,,0.00,meteohub,2013-05-15 03:27:00,
2013-05-14 23:32:00,57.6,44.6,29.62,NE,38,3.0,11.0,62,0.00,,,0.00,meteohub,2013-05-15 03:32:00,
2013-05-14 23:37:00,57.2,44.8,29.62,South,184,2.0,10.0,63,0.00,,,0.00,meteohub,2013-05-15 03:37:00,
2013-05-14 23:43:00,56.8,44.4,29.61,SW,224,2.0,10.0,63,0.00,,,0.00,meteohub,2013-05-15 03:43:00,
2013-05-14 23:48:00,56.7,44.6,29.61,SSW,199,3.0,8.0,64,0.00,,,0.00,meteohub,2013-05-15 03:48:00,
2013-05-14 23:53:00,56.5,44.4,29.60,SE,145,1.0,8.0,64,0.00,,,0.00,meteohub,2013-05-15 03:53:00,
2013-05-14 23:58:00,56.1,44.6,29.60,South,179,5.0,11.0,65,0.00,,,0.00,meteohub,2013-05-15 03:58:00,